Archival Weather

Chicago O'Hare International

Chicago, Illinois (KORD)

Report from: Friday, March 30, 2012 12:51 AM CDT
Current time: Wednesday, May 29, 2024 2:57 AM CDT

Current weather – Weather history – Daily summaries
Weather forecast

Temperature4.4°C (39.9°F)
Wind chill2.1°C (35.8°F)
Dew point2.2°C (36.0°F)
Winds 5 kts (2.6 m/s, 5.8 mph) East-Northeast (60°)
Visibility10 mi. (16.1 km)
Clouds Scattered clouds 12,000 ft. (3,658 m)
Scattered clouds 25,000 ft. (7,620 m)
Altimeter29.94 in.Hg (1014 mB)
Relative humidity86 %
Density altitude-1,206 ft. (-367 m)
Sea-level pressure101.4 kPa (1014 mB, 29.95 in.Hg)
Max temp last 6 hours5.0°C (41.0°F)
Min temp last 6 hours4.4°C (39.9°F)
Max temp last 24 hours8.9°C (48.0°F)
Min temp last 24 hours-1.1°C (30.0°F)
Remarks System requires maintenance
Automated weather observing station with precipitation discriminator
Pressure falling more quickly
Flight conditions Visual Meteorological Conditions
Raw data2012-03-30 05:51 KORD 300551Z 06005KT 10SM SCT120 SCT250 04/02 A2994 RMK AO2 SLP141 T00440022 10050 20044 400891011 58030 $
An error has occurred. This application may no longer respond until reloaded. Reload 🗙